Time;durP1;ratioP1;P1;durP2;ratioP2;P2;SDS_P1;SDS_P2;PMS_P1;PMS_P2;Temp;Humidity;BMP_temperature;BMP_pressure;BME280_temperature;BME280_humidity;BME280_pressure;Samples;Min_cycle;Max_cycle;Signal;HPM_P1;HPM_P2
2021/08/25 00:01:26;;;;;;;14.57;11.40;;;14.80;99.90;;;;;;4390652;32;20160;-63
2021/08/25 00:03:54;;;;;;;15.30;11.20;;;14.80;99.90;;;;;;4389270;32;20202;-64
2021/08/25 00:06:23;;;;;;;17.27;11.07;;;14.80;99.90;;;;;;4391329;32;20160;-64
2021/08/25 00:08:50;;;;;;;14.87;11.73;;;14.70;99.90;;;;;;4391006;32;20624;-63
2021/08/25 00:11:17;;;;;;;14.43;10.40;;;14.70;99.90;;;;;;4390595;32;20295;-63
2021/08/25 00:13:44;;;;;;;14.80;11.40;;;14.70;99.90;;;;;;4389595;32;20223;-64
2021/08/25 00:16:11;;;;;;;15.47;11.10;;;14.70;99.90;;;;;;4391390;32;20235;-63
2021/08/25 00:18:38;;;;;;;12.83;10.83;;;14.70;99.90;;;;;;4390595;32;20193;-62
2021/08/25 00:21:06;;;;;;;14.70;11.37;;;14.70;99.90;;;;;;4390419;32;20148;-63
2021/08/25 00:23:33;;;;;;;15.70;11.47;;;14.70;99.90;;;;;;4390104;32;20152;-63
2021/08/25 00:26:00;;;;;;;12.67;11.27;;;14.60;99.90;;;;;;4390523;32;20159;-60
2021/08/25 00:28:27;;;;;;;18.63;12.60;;;14.60;99.90;;;;;;4390181;32;20223;-61
2021/08/25 00:30:54;;;;;;;14.67;12.53;;;14.60;99.90;;;;;;4391416;32;20192;-62
2021/08/25 00:33:20;;;;;;;17.50;12.27;;;14.60;99.90;;;;;;4391027;32;20607;-62
2021/08/25 00:35:47;;;;;;;15.53;12.83;;;14.50;99.90;;;;;;4391278;32;20453;-62
2021/08/25 00:38:15;;;;;;;16.00;13.23;;;14.50;99.90;;;;;;4391034;32;20235;-62
2021/08/25 00:40:43;;;;;;;15.23;12.27;;;14.50;99.90;;;;;;4390410;32;20565;-62
2021/08/25 00:43:12;;;;;;;16.43;11.40;;;14.50;99.90;;;;;;4390196;32;20159;-62
2021/08/25 00:45:39;;;;;;;16.83;13.33;;;14.50;99.90;;;;;;4390535;32;20166;-63
2021/08/25 00:48:07;;;;;;;17.07;13.00;;;14.50;99.90;;;;;;4389940;32;20215;-62
2021/08/25 00:50:35;;;;;;;16.83;13.33;;;14.50;99.90;;;;;;4390330;32;20203;-62
2021/08/25 00:53:03;;;;;;;22.57;13.67;;;14.50;99.90;;;;;;4390458;32;20156;-63
2021/08/25 00:55:32;;;;;;;17.27;12.90;;;14.40;99.90;;;;;;4390563;32;20179;-61
2021/08/25 00:58:00;;;;;;;16.50;13.07;;;14.40;99.90;;;;;;4389958;32;20214;-62
2021/08/25 01:00:30;;;;;;;15.70;13.40;;;14.40;99.90;;;;;;4390184;32;20171;-62
2021/08/25 01:03:06;;;;;;;16.67;13.77;;;14.40;99.90;;;;;;4392339;32;20205;-62
2021/08/25 01:05:35;;;;;;;15.20;12.43;;;14.40;99.90;;;;;;4397736;32;20178;-62
2021/08/25 01:08:03;;;;;;;14.07;12.23;;;14.40;99.90;;;;;;4389698;32;20160;-62
2021/08/25 01:10:33;;;;;;;17.97;14.53;;;14.30;99.90;;;;;;4389730;32;20212;-62
2021/08/25 01:13:03;;;;;;;20.03;13.87;;;14.30;99.90;;;;;;4391671;32;20207;-63
2021/08/25 01:15:31;;;;;;;17.10;13.27;;;14.30;99.90;;;;;;4392595;32;20144;-62
2021/08/25 01:18:01;;;;;;;20.37;12.80;;;14.30;99.90;;;;;;4391394;32;20508;-63
2021/08/25 01:20:28;;;;;;;14.97;12.63;;;14.20;99.90;;;;;;4392549;32;20219;-63
2021/08/25 01:22:57;;;;;;;16.53;12.80;;;14.20;99.90;;;;;;4391834;32;20610;-62
2021/08/25 01:25:26;;;;;;;18.90;14.60;;;14.20;99.90;;;;;;4393951;32;20217;-62
2021/08/25 01:27:58;;;;;;;18.30;13.97;;;14.20;99.90;;;;;;4391840;32;20168;-63
2021/08/25 01:30:29;;;;;;;17.70;13.30;;;14.20;99.90;;;;;;4391911;32;20198;-63
2021/08/25 01:32:59;;;;;;;16.23;13.27;;;14.20;99.90;;;;;;4392056;32;20164;-63
2021/08/25 01:35:32;;;;;;;17.53;14.20;;;14.20;99.90;;;;;;4391736;32;20190;-63
2021/08/25 01:38:01;;;;;;;22.17;14.87;;;14.20;99.90;;;;;;4392147;32;20157;-63
2021/08/25 01:40:28;;;;;;;19.90;15.00;;;14.20;99.90;;;;;;4393236;32;20584;-62
2021/08/25 01:42:55;;;;;;;19.17;14.80;;;14.10;99.90;;;;;;4391732;32;20211;-63
2021/08/25 01:45:22;;;;;;;20.17;15.97;;;14.10;99.90;;;;;;4392007;32;20211;-62
2021/08/25 01:47:50;;;;;;;19.63;15.33;;;14.10;99.90;;;;;;4391656;32;20652;-62
2021/08/25 01:50:16;;;;;;;20.20;14.90;;;14.10;99.90;;;;;;4391830;32;20171;-62
2021/08/25 01:52:43;;;;;;;18.43;15.43;;;14.00;99.90;;;;;;4391092;32;20525;-62
2021/08/25 01:55:10;;;;;;;20.40;15.17;;;14.00;99.90;;;;;;4393241;32;20187;-62
2021/08/25 01:57:37;;;;;;;19.27;15.63;;;14.00;99.90;;;;;;4393180;32;20525;-62
2021/08/25 02:00:05;;;;;;;19.63;15.23;;;14.00;99.90;;;;;;4391441;32;20152;-62
2021/08/25 02:02:32;;;;;;;21.47;15.40;;;14.00;99.90;;;;;;4391131;32;20175;-62
2021/08/25 02:05:00;;;;;;;22.00;16.80;;;14.00;99.90;;;;;;4318715;32;2032190;-62
2021/08/25 02:07:27;;;;;;;23.37;17.30;;;14.00;99.90;;;;;;4393798;32;20628;-62
2021/08/25 02:09:55;;;;;;;19.63;16.17;;;13.90;99.90;;;;;;4392216;32;20223;-62
2021/08/25 02:12:22;;;;;;;19.77;15.73;;;13.90;99.90;;;;;;4393885;32;20206;-62
2021/08/25 02:14:49;;;;;;;20.23;17.27;;;13.90;99.90;;;;;;4392859;32;20671;-63
2021/08/25 02:17:15;;;;;;;18.67;15.87;;;13.90;99.90;;;;;;4392457;32;20205;-63
2021/08/25 02:19:42;;;;;;;21.40;17.40;;;13.90;99.90;;;;;;4392318;32;20619;-63
2021/08/25 02:22:11;;;;;;;23.17;16.00;;;13.90;99.90;;;;;;4392804;32;20152;-63
2021/08/25 02:24:37;;;;;;;20.57;16.90;;;14.00;99.90;;;;;;4392923;32;20581;-64
2021/08/25 02:27:04;;;;;;;18.97;15.97;;;14.00;99.90;;;;;;4392323;32;20210;-63
2021/08/25 02:29:31;;;;;;;17.23;14.57;;;14.00;99.90;;;;;;4391695;32;20492;-63
2021/08/25 02:31:58;;;;;;;18.20;15.53;;;14.00;99.90;;;;;;4391902;32;20175;-61
2021/08/25 02:34:25;;;;;;;19.37;15.80;;;14.00;99.90;;;;;;4393654;32;20695;-63
2021/08/25 02:36:52;;;;;;;18.23;15.83;;;14.10;99.90;;;;;;4392310;32;20167;-63
2021/08/25 02:39:20;;;;;;;18.00;16.00;;;14.10;99.90;;;;;;4393097;32;20184;-63
2021/08/25 02:41:47;;;;;;;19.30;16.33;;;14.20;99.90;;;;;;4392180;32;20207;-64
2021/08/25 02:44:13;;;;;;;23.40;18.80;;;14.10;99.90;;;;;;4391872;32;20630;-63
2021/08/25 02:46:40;;;;;;;21.57;16.17;;;14.10;99.90;;;;;;4391767;32;20626;-63
2021/08/25 02:49:07;;;;;;;19.83;16.40;;;14.10;99.90;;;;;;4392092;32;20220;-63
2021/08/25 02:51:34;;;;;;;21.23;17.00;;;14.10;99.90;;;;;;4391579;32;20148;-63
2021/08/25 02:54:01;;;;;;;21.83;17.53;;;14.10;99.90;;;;;;4392760;32;20512;-62
2021/08/25 02:56:29;;;;;;;21.00;16.80;;;14.00;99.90;;;;;;4391906;32;20161;-64
2021/08/25 02:58:56;;;;;;;19.97;17.17;;;14.00;99.90;;;;;;4392624;32;20223;-63
2021/08/25 03:01:22;;;;;;;20.73;15.97;;;14.00;99.90;;;;;;4391487;32;20172;-63
2021/08/25 03:03:49;;;;;;;21.30;17.73;;;14.00;99.90;;;;;;4391197;32;20206;-63
2021/08/25 03:06:16;;;;;;;20.13;16.70;;;14.00;99.90;;;;;;4391951;32;20167;-63
2021/08/25 03:08:43;;;;;;;21.67;16.87;;;14.00;99.90;;;;;;4392152;32;20568;-62
2021/08/25 03:11:10;;;;;;;19.73;16.23;;;13.90;99.90;;;;;;4391716;32;20152;-63
2021/08/25 03:13:39;;;;;;;20.23;17.97;;;13.90;99.90;;;;;;4390947;32;20151;-63
2021/08/25 03:16:06;;;;;;;19.40;17.30;;;13.90;99.90;;;;;;4391615;32;20239;-64
2021/08/25 03:18:33;;;;;;;19.37;16.67;;;14.00;99.90;;;;;;4390927;32;20231;-61
2021/08/25 03:21:00;;;;;;;19.10;17.10;;;13.90;99.90;;;;;;4391718;32;20513;-63
2021/08/25 03:23:27;;;;;;;20.17;17.37;;;13.90;99.90;;;;;;4390225;32;20149;-63
2021/08/25 03:25:54;;;;;;;19.10;16.47;;;13.90;99.90;;;;;;4391577;32;20155;-63
2021/08/25 03:28:21;;;;;;;19.40;16.80;;;13.80;99.90;;;;;;4392410;32;20219;-63
2021/08/25 03:30:49;;;;;;;19.97;17.67;;;13.80;99.90;;;;;;4391495;32;20137;-62
2021/08/25 03:33:16;;;;;;;18.13;16.20;;;13.80;99.90;;;;;;4392326;32;20258;-63
2021/08/25 03:35:42;;;;;;;18.57;16.53;;;13.80;99.90;;;;;;4390815;32;20222;-63
2021/08/25 03:38:09;;;;;;;20.53;18.33;;;13.80;99.90;;;;;;4392868;32;20483;-63
2021/08/25 03:40:36;;;;;;;22.40;17.37;;;13.80;99.90;;;;;;4390932;32;20217;-64
2021/08/25 03:43:03;;;;;;;18.97;16.63;;;13.70;99.90;;;;;;4390790;32;20186;-62
2021/08/25 03:45:30;;;;;;;17.63;15.60;;;13.70;99.90;;;;;;4392484;32;20644;-62
2021/08/25 03:47:58;;;;;;;19.10;16.37;;;13.70;99.90;;;;;;4390396;32;20223;-60
2021/08/25 03:50:24;;;;;;;19.73;17.33;;;13.80;99.90;;;;;;4390983;32;20585;-61
2021/08/25 03:52:51;;;;;;;17.93;15.93;;;13.80;99.90;;;;;;4392504;32;20178;-62
2021/08/25 03:55:18;;;;;;;19.10;17.10;;;13.80;99.90;;;;;;4391181;32;20214;-61
2021/08/25 03:57:45;;;;;;;20.63;18.43;;;13.90;99.90;;;;;;4392616;32;20149;-64
2021/08/25 04:00:12;;;;;;;18.33;16.43;;;13.90;99.90;;;;;;4391368;32;20504;-61
2021/08/25 04:02:39;;;;;;;19.40;17.30;;;13.90;99.90;;;;;;4391454;32;20157;-61
2021/08/25 04:05:09;;;;;;;19.90;17.67;;;13.90;99.90;;;;;;4405623;32;20266;-61
2021/08/25 04:07:36;;;;;;;19.63;16.73;;;13.90;99.90;;;;;;4390674;32;20200;-64
2021/08/25 04:10:03;;;;;;;18.17;15.73;;;13.90;99.90;;;;;;4390254;32;20217;-62
2021/08/25 04:12:29;;;;;;;17.07;15.27;;;13.70;99.90;;;;;;4390860;32;20225;-64
2021/08/25 04:14:56;;;;;;;19.37;17.27;;;13.70;99.90;;;;;;4390501;32;20160;-63
2021/08/25 04:17:23;;;;;;;18.30;16.37;;;13.70;99.90;;;;;;4389838;32;20168;-63
2021/08/25 04:19:50;;;;;;;18.37;15.97;;;13.70;99.90;;;;;;4390767;32;20147;-64
2021/08/25 04:22:18;;;;;;;18.97;16.40;;;13.60;99.90;;;;;;4391289;32;20182;-63
2021/08/25 04:24:45;;;;;;;19.63;17.53;;;13.60;99.90;;;;;;4390658;32;20162;-64
2021/08/25 04:27:12;;;;;;;21.23;17.33;;;13.70;99.90;;;;;;4391029;32;20178;-64
2021/08/25 04:29:39;;;;;;;20.23;17.57;;;13.60;99.90;;;;;;4390692;32;20624;-64
2021/08/25 04:32:06;;;;;;;18.83;16.83;;;13.60;99.90;;;;;;4390226;32;20261;-63
2021/08/25 04:34:33;;;;;;;18.83;16.83;;;13.60;99.90;;;;;;4390533;32;20162;-62
2021/08/25 04:37:00;;;;;;;20.87;18.00;;;13.60;99.90;;;;;;4390898;32;20228;-64
2021/08/25 04:39:28;;;;;;;20.87;17.40;;;13.60;99.90;;;;;;4391847;32;20155;-63
2021/08/25 04:41:55;;;;;;;20.43;17.47;;;13.50;99.90;;;;;;4389855;32;20174;-64
2021/08/25 04:44:21;;;;;;;20.87;17.63;;;13.50;99.90;;;;;;4392298;32;20211;-64
2021/08/25 04:46:48;;;;;;;18.73;16.73;;;13.50;99.90;;;;;;4390987;32;20235;-62
2021/08/25 04:49:15;;;;;;;22.40;16.87;;;13.50;99.90;;;;;;4390445;32;20176;-63
2021/08/25 04:51:42;;;;;;;20.17;17.30;;;13.60;99.90;;;;;;4389855;32;21182;-63
2021/08/25 04:54:09;;;;;;;16.93;15.13;;;13.60;99.90;;;;;;4390111;32;20167;-64
2021/08/25 04:56:37;;;;;;;17.53;15.73;;;13.60;99.90;;;;;;4392117;32;20215;-63
2021/08/25 04:59:04;;;;;;;18.20;16.27;;;13.60;99.90;;;;;;4389949;32;20174;-63
2021/08/25 05:01:31;;;;;;;17.63;15.10;;;13.60;99.90;;;;;;4392079;32;20219;-63
2021/08/25 05:03:57;;;;;;;17.63;15.73;;;13.50;99.90;;;;;;4398419;32;20168;-63
2021/08/25 05:06:24;;;;;;;16.27;14.63;;;13.50;99.90;;;;;;4405593;32;20580;-63
2021/08/25 05:08:51;;;;;;;15.87;14.27;;;13.50;99.90;;;;;;4394771;32;20186;-64
2021/08/25 05:11:18;;;;;;;15.93;14.33;;;13.50;99.90;;;;;;4389986;32;20193;-62
2021/08/25 05:13:46;;;;;;;16.57;14.90;;;13.50;99.90;;;;;;4390700;32;20200;-60
2021/08/25 05:16:13;;;;;;;15.43;13.93;;;13.50;99.90;;;;;;4389895;32;20224;-64
2021/08/25 05:18:40;;;;;;;18.23;16.43;;;13.50;99.90;;;;;;4390267;32;20215;-64
2021/08/25 05:21:07;;;;;;;16.03;14.33;;;13.50;99.90;;;;;;4391505;32;20262;-63
2021/08/25 05:23:34;;;;;;;16.50;14.90;;;13.50;99.90;;;;;;4389849;32;20215;-63
2021/08/25 05:26:01;;;;;;;15.70;14.10;;;13.50;99.90;;;;;;4389915;32;20164;-63
2021/08/25 05:28:28;;;;;;;15.23;13.70;;;13.60;99.90;;;;;;4391577;32;20632;-63
2021/08/25 05:30:56;;;;;;;15.30;13.77;;;13.70;99.90;;;;;;4390317;32;20195;-63
2021/08/25 05:33:23;;;;;;;16.00;14.20;;;13.70;99.90;;;;;;4390790;32;20195;-64
2021/08/25 05:35:50;;;;;;;15.43;13.93;;;13.70;99.90;;;;;;4392962;32;20163;-63
2021/08/25 05:38:16;;;;;;;16.80;14.47;;;13.70;99.90;;;;;;4390661;32;20156;-62
2021/08/25 05:40:43;;;;;;;16.63;14.93;;;13.70;99.90;;;;;;4389669;32;20214;-63
2021/08/25 05:43:10;;;;;;;16.17;14.50;;;13.80;99.90;;;;;;4389854;32;20216;-62
2021/08/25 05:45:37;;;;;;;15.80;14.20;;;13.90;99.90;;;;;;4388514;32;20259;-62
2021/08/25 05:48:06;;;;;;;16.60;14.90;;;14.00;99.90;;;;;;4391422;32;20594;-63
2021/08/25 05:50:33;;;;;;;16.40;14.70;;;14.10;99.90;;;;;;4377894;32;20194;-62
2021/08/25 05:52:59;;;;;;;17.33;15.23;;;14.40;99.90;;;;;;4382776;32;20507;-62
2021/08/25 05:55:26;;;;;;;16.67;14.93;;;14.50;99.90;;;;;;4395917;32;20269;-63
2021/08/25 05:57:53;;;;;;;17.33;14.03;;;14.70;99.90;;;;;;4399064;32;20156;-62
2021/08/25 06:00:21;;;;;;;15.70;13.97;;;14.80;99.90;;;;;;4382372;32;20235;-62
2021/08/25 06:02:48;;;;;;;15.50;13.90;;;14.90;99.90;;;;;;4391293;32;20195;-60
2021/08/25 06:05:16;;;;;;;17.17;15.20;;;14.90;99.90;;;;;;4392345;32;20187;-61
2021/08/25 06:07:43;;;;;;;15.93;14.07;;;14.80;99.90;;;;;;4392378;32;20216;-60
2021/08/25 06:10:11;;;;;;;18.67;14.37;;;14.60;99.90;;;;;;4393290;32;20160;-60
2021/08/25 06:12:38;;;;;;;16.27;14.43;;;14.60;99.90;;;;;;4392323;32;20219;-64
2021/08/25 06:15:06;;;;;;;16.00;14.13;;;14.60;99.90;;;;;;4392234;32;20175;-64
2021/08/25 06:17:33;;;;;;;18.80;14.47;;;14.80;99.90;;;;;;4392538;32;20586;-63
2021/08/25 06:20:00;;;;;;;15.07;13.43;;;15.10;99.90;;;;;;4392145;32;20175;-60
2021/08/25 06:22:28;;;;;;;14.47;12.97;;;15.20;99.90;;;;;;4392519;32;20199;-62
2021/08/25 06:24:55;;;;;;;15.30;13.23;;;15.30;99.90;;;;;;4392755;32;20159;-61
2021/08/25 06:27:22;;;;;;;16.40;14.20;;;15.40;99.90;;;;;;4392452;32;20200;-62
2021/08/25 06:29:49;;;;;;;15.27;13.47;;;15.60;99.90;;;;;;4393464;32;20543;-62
2021/08/25 06:32:16;;;;;;;15.47;13.70;;;15.70;99.90;;;;;;4391997;32;20167;-63
2021/08/25 06:34:43;;;;;;;16.93;14.57;;;15.80;99.90;;;;;;4392558;32;20474;-62
2021/08/25 06:37:10;;;;;;;17.80;15.27;;;15.80;99.90;;;;;;4391549;32;20174;-62
2021/08/25 06:39:38;;;;;;;15.07;13.40;;;15.90;99.90;;;;;;4392122;32;20194;-62
2021/08/25 06:42:05;;;;;;;15.27;13.17;;;16.10;99.90;;;;;;4393660;32;20598;-61
2021/08/25 06:44:32;;;;;;;14.87;12.63;;;16.20;99.90;;;;;;4391833;32;20164;-61
2021/08/25 06:46:58;;;;;;;17.33;14.43;;;16.10;99.90;;;;;;4393748;32;20170;-61
2021/08/25 06:49:25;;;;;;;16.57;14.83;;;16.10;99.90;;;;;;4393271;32;20596;-62
2021/08/25 06:51:52;;;;;;;17.20;14.73;;;15.90;99.90;;;;;;4391671;32;20687;-62
2021/08/25 06:54:19;;;;;;;17.50;14.97;;;15.80;99.90;;;;;;4391949;32;20167;-62
2021/08/25 06:56:47;;;;;;;19.37;16.57;;;15.80;99.90;;;;;;4391928;32;20179;-62
2021/08/25 06:59:14;;;;;;;20.57;15.80;;;15.80;99.90;;;;;;4391024;32;20604;-62
2021/08/25 07:01:41;;;;;;;20.73;16.23;;;15.80;99.90;;;;;;4390941;32;20219;-62
2021/08/25 07:04:07;;;;;;;17.97;15.80;;;15.80;99.90;;;;;;4392154;32;20168;-62
2021/08/25 07:06:34;;;;;;;20.73;16.50;;;15.80;99.90;;;;;;4391228;32;20192;-62
2021/08/25 07:09:03;;;;;;;19.43;17.23;;;15.80;99.90;;;;;;4390484;32;20226;-62
2021/08/25 07:11:29;;;;;;;17.87;15.60;;;15.80;99.90;;;;;;4391589;32;20166;-62
2021/08/25 07:13:59;;;;;;;19.27;16.57;;;15.80;99.90;;;;;;4389363;32;20522;-62
2021/08/25 07:16:25;;;;;;;19.80;16.83;;;15.90;99.90;;;;;;4389598;32;20550;-62
2021/08/25 07:18:52;;;;;;;19.87;17.20;;;15.90;99.90;;;;;;4390441;32;20219;-62
2021/08/25 07:21:19;;;;;;;18.43;15.97;;;15.90;99.90;;;;;;4389968;32;20165;-61
2021/08/25 07:23:50;;;;;;;22.33;17.03;;;16.00;99.90;;;;;;4390661;32;20183;-62
2021/08/25 07:26:17;;;;;;;20.33;16.67;;;16.00;99.90;;;;;;4388865;32;20155;-62
2021/08/25 07:28:45;;;;;;;19.33;15.70;;;16.10;99.90;;;;;;4389330;32;20496;-62
2021/08/25 07:31:14;;;;;;;18.60;15.43;;;16.30;99.90;;;;;;4390410;32;20152;-62
2021/08/25 07:33:41;;;;;;;15.80;14.00;;;16.30;99.90;;;;;;4386315;32;20573;-62
2021/08/25 07:36:08;;;;;;;22.33;18.00;;;16.50;99.90;;;;;;4390252;32;20619;-63
2021/08/25 07:38:35;;;;;;;21.67;18.10;;;16.60;99.90;;;;;;4388531;32;20610;-61
2021/08/25 07:41:02;;;;;;;16.77;12.20;;;17.50;99.90;;;;;;4391674;32;20180;-61
2021/08/25 07:43:29;;;;;;;14.47;12.23;;;19.80;99.90;;;;;;4389635;32;20171;-60
2021/08/25 07:45:56;;;;;;;14.53;12.17;;;24.20;99.90;;;;;;4389654;32;20160;-61
2021/08/25 07:48:24;;;;;;;12.23;10.33;;;26.80;98.00;;;;;;4389426;32;20185;-64
2021/08/25 07:50:52;;;;;;;16.00;10.40;;;29.50;93.50;;;;;;4388546;32;20160;-63
2021/08/25 07:53:20;;;;;;;23.38;9.82;;;33.20;80.70;;;;;;4388563;32;20160;-63
2021/08/25 07:55:47;;;;;;;16.90;9.45;;;36.80;66.90;;;;;;4391337;32;20459;-63
2021/08/25 07:58:14;;;;;;;8.70;6.97;;;38.80;57.00;;;;;;4388814;32;20228;-63
2021/08/25 08:00:41;;;;;;;9.07;7.65;;;40.90;53.50;;;;;;4390173;32;20581;-63
2021/08/25 08:03:08;;;;;;;5.87;5.28;;;42.50;49.50;;;;;;4390141;32;20160;-63
2021/08/25 08:05:36;;;;;;;9.63;8.57;;;44.10;46.30;;;;;;4390285;32;20188;-63
2021/08/25 08:08:04;;;;;;;8.48;7.05;;;45.20;43.60;;;;;;4391859;32;20635;-63
2021/08/25 08:10:31;;;;;;;9.25;8.35;;;45.70;43.40;;;;;;4390578;32;20164;-63
2021/08/25 08:12:57;;;;;;;10.98;9.25;;;46.10;39.90;;;;;;4390898;32;20182;-64
2021/08/25 08:15:26;;;;;;;10.80;7.22;;;44.00;40.50;;;;;;4391545;32;20488;-63
2021/08/25 08:17:53;;;;;;;7.85;7.05;;;44.00;40.80;;;;;;4392285;32;20441;-63
2021/08/25 08:20:20;;;;;;;7.20;6.53;;;45.30;41.30;;;;;;4392070;32;20182;-63
2021/08/25 08:22:49;;;;;;;7.12;6.03;;;46.20;39.40;;;;;;4390700;32;20556;-63
2021/08/25 08:25:16;;;;;;;7.47;6.50;;;46.40;38.80;;;;;;4390673;32;20163;-62
2021/08/25 08:27:43;;;;;;;8.25;7.45;;;47.40;38.20;;;;;;4390557;32;20147;-63
2021/08/25 08:30:11;;;;;;;11.30;9.07;;;47.70;37.00;;;;;;4390557;32;20184;-63
2021/08/25 08:32:40;;;;;;;8.82;7.15;;;47.70;35.80;;;;;;4389652;32;20163;-63
2021/08/25 08:35:08;;;;;;;8.50;7.43;;;47.80;37.00;;;;;;4391681;32;20205;-63
2021/08/25 08:37:35;;;;;;;7.40;6.53;;;48.00;36.30;;;;;;4391692;32;20174;-63
2021/08/25 08:40:03;;;;;;;7.82;7.05;;;48.50;35.90;;;;;;4390382;32;20222;-63
2021/08/25 08:42:31;;;;;;;7.25;6.47;;;48.70;36.10;;;;;;4391801;32;20155;-63
2021/08/25 08:44:59;;;;;;;7.70;7.00;;;48.90;35.70;;;;;;4391912;32;20164;-63
2021/08/25 08:47:27;;;;;;;7.70;6.90;;;48.90;35.50;;;;;;4390492;32;20163;-63
2021/08/25 08:49:56;;;;;;;8.00;7.28;;;49.30;35.20;;;;;;4392136;32;20164;-63
2021/08/25 08:52:23;;;;;;;9.55;8.65;;;49.10;35.80;;;;;;4390657;32;20624;-62
2021/08/25 08:54:53;;;;;;;8.40;7.32;;;49.20;35.50;;;;;;4390047;32;20159;-64
2021/08/25 08:57:22;;;;;;;8.55;7.22;;;49.50;34.30;;;;;;4389833;32;20213;-63
2021/08/25 08:59:49;;;;;;;8.02;7.12;;;49.80;34.80;;;;;;4387348;32;20186;-64
2021/08/25 09:02:39;;;;;;;8.13;6.68;;;49.30;34.10;;;;;;4389807;32;20537;-63
2021/08/25 09:05:19;;;;;;;7.07;6.37;;;49.00;33.90;;;;;;4390950;32;20238;-64
2021/08/25 09:07:51;;;;;;;6.65;5.45;;;48.60;33.90;;;;;;4390738;32;20230;-65
2021/08/25 09:10:27;;;;;;;7.32;6.60;;;48.20;34.30;;;;;;4388254;32;20194;-64
2021/08/25 09:12:59;;;;;;;7.45;6.55;;;44.80;35.40;;;;;;4387843;32;20184;-63
2021/08/25 09:15:28;;;;;;;8.30;7.05;;;39.40;39.20;;;;;;4386925;32;20168;-62
2021/08/25 09:17:57;;;;;;;8.40;7.37;;;35.10;42.90;;;;;;4386301;32;20274;-62
2021/08/25 09:20:24;;;;;;;8.90;7.07;;;31.90;47.10;;;;;;4385744;32;20220;-62
2021/08/25 09:23:16;;;;;;;12.20;8.20;;;29.80;50.30;;;;;;4385038;32;20226;-63
2021/08/25 09:25:44;;;;;;;11.07;7.10;;;28.10;53.30;;;;;;4373179;32;20206;-61
2021/08/25 09:28:14;;;;;;;7.57;6.47;;;27.00;56.70;;;;;;4377927;32;20518;-63
2021/08/25 09:30:53;;;;;;;8.48;6.62;;;26.30;59.90;;;;;;4378207;32;20218;-63
2021/08/25 09:33:22;;;;;;;6.90;5.20;;;25.70;60.80;;;;;;4382460;32;20222;-63
2021/08/25 09:35:48;;;;;;;9.48;5.47;;;25.20;64.10;;;;;;4392795;32;20174;-63
2021/08/25 09:38:19;;;;;;;7.45;5.45;;;24.90;66.10;;;;;;4387867;32;20184;-63
2021/08/25 09:40:47;;;;;;;7.57;5.65;;;24.70;67.00;;;;;;4382572;32;20198;-63
2021/08/25 09:43:32;;;;;;;10.85;6.87;;;24.50;69.90;;;;;;4393121;32;20580;-64
2021/08/25 09:46:10;;;;;;;9.35;6.75;;;24.20;73.20;;;;;;4390383;32;20278;-64
2021/08/25 09:48:38;;;;;;;10.25;6.72;;;24.00;76.30;;;;;;4391880;32;20174;-64
2021/08/25 09:51:06;;;;;;;7.37;5.45;;;23.90;78.80;;;;;;4392163;32;20187;-64
2021/08/25 09:53:34;;;;;;;9.90;6.53;;;23.80;81.30;;;;;;4391824;32;20168;-64
2021/08/25 09:56:01;;;;;;;7.22;5.75;;;23.80;86.50;;;;;;4392147;32;20220;-65
2021/08/25 09:58:29;;;;;;;9.80;5.80;;;23.90;86.60;;;;;;4392530;32;20174;-64
2021/08/25 10:00:57;;;;;;;8.68;5.90;;;23.80;86.60;;;;;;4392799;32;20167;-65
2021/08/25 10:03:24;;;;;;;10.55;6.65;;;23.50;86.90;;;;;;4392613;32;20156;-65
2021/08/25 10:05:51;;;;;;;8.68;5.62;;;23.40;90.90;;;;;;4393980;32;20644;-65
2021/08/25 10:08:18;;;;;;;7.40;5.72;;;23.50;91.20;;;;;;4392815;32;20148;-65
2021/08/25 10:10:47;;;;;;;10.45;6.00;;;23.60;91.00;;;;;;4392710;32;20182;-64
2021/08/25 10:13:14;;;;;;;7.35;5.90;;;23.90;91.30;;;;;;4393658;32;20156;-64
2021/08/25 10:15:46;;;;;;;8.43;5.20;;;23.90;91.40;;;;;;4392412;32;20199;-64
2021/08/25 10:18:24;;;;;;;10.30;6.57;;;23.90;91.40;;;;;;4392528;32;20156;-64
2021/08/25 10:20:53;;;;;;;8.13;5.78;;;23.80;90.60;;;;;;4392700;32;20545;-64
2021/08/25 10:23:19;;;;;;;8.85;5.97;;;23.80;91.30;;;;;;4392406;32;20176;-65
2021/08/25 10:26:06;;;;;;;7.97;6.05;;;24.30;92.10;;;;;;4392738;32;20159;-65
2021/08/25 10:29:03;;;;;;;8.05;5.30;;;24.60;91.00;;;;;;4392940;32;20215;-65
2021/08/25 10:32:03;;;;;;;7.18;4.85;;;24.50;91.50;;;;;;4392313;32;20243;-65
2021/08/25 10:34:37;;;;;;;6.43;4.60;;;24.50;91.90;;;;;;4391903;32;20599;-66
2021/08/25 10:37:28;;;;;;;9.93;5.10;;;24.40;92.10;;;;;;4390472;32;20158;-66
2021/08/25 10:40:03;;;;;;;7.62;4.57;;;24.30;91.70;;;;;;4391281;32;20191;-65
2021/08/25 10:42:50;;;;;;;6.07;4.00;;;24.20;92.10;;;;;;4389748;32;20218;-65
2021/08/25 10:45:38;;;;;;;5.83;4.03;;;24.10;92.10;;;;;;4378198;32;20485;-65
2021/08/25 10:48:08;;;;;;;4.95;3.53;;;24.10;92.20;;;;;;4377097;32;20204;-64
2021/08/25 10:50:50;;;;;;;8.90;4.10;;;24.10;92.20;;;;;;4377063;32;20202;-65
2021/08/25 10:53:37;;;;;;;6.03;3.80;;;24.20;92.70;;;;;;4376945;32;20179;-64
2021/08/25 10:56:11;;;;;;;7.15;3.42;;;24.70;92.90;;;;;;4386873;32;20160;-65
2021/08/25 10:58:45;;;;;;;7.50;3.67;;;24.60;92.20;;;;;;4391171;32;20167;-65
2021/08/25 11:01:25;;;;;;;7.97;3.60;;;24.30;92.10;;;;;;4390299;32;20155;-65
2021/08/25 11:03:52;;;;;;;6.32;3.97;;;23.90;92.70;;;;;;4389424;32;20555;-65
2021/08/25 11:06:37;;;;;;;7.22;3.35;;;23.70;92.70;;;;;;4391831;32;20144;-65
2021/08/25 11:09:24;;;;;;;6.40;3.47;;;23.80;93.30;;;;;;4392375;32;20209;-65
2021/08/25 11:11:54;;;;;;;8.10;3.20;;;24.00;93.80;;;;;;4393556;32;20167;-65
2021/08/25 11:14:27;;;;;;;5.93;2.95;;;24.30;93.60;;;;;;4391730;32;20186;-66
2021/08/25 11:16:56;;;;;;;4.37;2.92;;;24.50;92.10;;;;;;4393300;32;20241;-66
2021/08/25 11:19:29;;;;;;;4.78;3.10;;;24.30;91.90;;;;;;4391381;32;20175;-65
2021/08/25 11:21:58;;;;;;;5.20;3.17;;;24.20;91.90;;;;;;4390906;32;20216;-64
2021/08/25 11:24:36;;;;;;;5.50;3.25;;;23.80;93.00;;;;;;4392375;32;20198;-64
2021/08/25 11:27:03;;;;;;;5.07;2.80;;;23.60;93.00;;;;;;4376435;32;20148;-64
2021/08/25 11:29:30;;;;;;;3.45;2.35;;;23.30;93.50;;;;;;4376165;32;20179;-64
2021/08/25 11:32:04;;;;;;;9.07;2.90;;;23.10;94.30;;;;;;4376247;32;20174;-64
2021/08/25 11:34:31;;;;;;;6.72;2.85;;;22.90;94.50;;;;;;4376347;32;20568;-64
2021/08/25 11:37:03;;;;;;;4.18;2.60;;;23.00;93.90;;;;;;4376194;32;20168;-64
2021/08/25 11:39:31;;;;;;;5.60;2.65;;;23.40;93.20;;;;;;4375876;32;20160;-65
2021/08/25 11:41:58;;;;;;;4.60;2.80;;;23.90;92.70;;;;;;4376136;32;20153;-65
2021/08/25 11:44:44;;;;;;;6.28;2.70;;;24.30;92.00;;;;;;4390203;32;20172;-64
2021/08/25 11:47:16;;;;;;;4.93;2.90;;;24.50;90.70;;;;;;4391228;32;20203;-63
2021/08/25 11:49:45;;;;;;;4.47;2.70;;;24.60;91.30;;;;;;4391749;32;20148;-64
2021/08/25 11:52:15;;;;;;;3.75;2.40;;;24.80;90.90;;;;;;4391194;32;20182;-64
2021/08/25 11:54:43;;;;;;;5.50;2.47;;;25.00;90.20;;;;;;4390851;32;20148;-64
2021/08/25 11:57:11;;;;;;;3.97;2.42;;;25.00;90.30;;;;;;4391400;32;20165;-64
2021/08/25 11:59:54;;;;;;;5.15;2.90;;;24.60;89.60;;;;;;4389995;32;20170;-63
2021/08/25 12:02:20;;;;;;;4.12;3.15;;;24.20;90.90;;;;;;4390038;32;20916;-64
2021/08/25 12:04:47;;;;;;;3.72;2.17;;;24.10;91.60;;;;;;4390089;32;20179;-63
2021/08/25 12:07:19;;;;;;;3.53;2.37;;;24.20;92.00;;;;;;4391084;32;20148;-63
2021/08/25 12:09:46;;;;;;;5.90;3.05;;;24.20;91.10;;;;;;4390804;32;20167;-64
2021/08/25 12:12:13;;;;;;;4.90;2.60;;;24.60;91.70;;;;;;4390812;32;20144;-65
2021/08/25 12:14:54;;;;;;;7.93;2.83;;;24.60;90.80;;;;;;4390787;32;20183;-66
2021/08/25 12:17:23;;;;;;;5.20;2.65;;;24.30;90.60;;;;;;4390811;32;20159;-64
2021/08/25 12:20:00;;;;;;;4.20;2.97;;;24.10;91.80;;;;;;4390265;32;20215;-65
2021/08/25 12:22:30;;;;;;;5.75;2.72;;;24.30;91.80;;;;;;4390694;32;20582;-65
2021/08/25 12:24:59;;;;;;;5.22;3.00;;;24.60;91.80;;;;;;4390295;32;20157;-65
2021/08/25 12:27:26;;;;;;;5.07;2.85;;;24.40;91.60;;;;;;4389806;32;20151;-64
2021/08/25 12:29:57;;;;;;;6.25;2.85;;;24.30;91.80;;;;;;4390021;32;20220;-64
2021/08/25 12:32:24;;;;;;;7.43;3.45;;;24.50;92.80;;;;;;4391172;32;20159;-64
2021/08/25 12:34:55;;;;;;;4.50;2.85;;;24.40;92.00;;;;;;4390381;32;20168;-64
2021/08/25 12:37:22;;;;;;;5.70;3.10;;;24.60;92.00;;;;;;4389817;32;20220;-64
2021/08/25 12:39:50;;;;;;;6.55;2.78;;;24.90;92.40;;;;;;4389595;32;20693;-64
2021/08/25 12:42:19;;;;;;;5.65;4.07;;;25.10;92.10;;;;;;4388666;32;20201;-64